Time;durP1;ratioP1;P1;durP2;ratioP2;P2;SDS_P1;SDS_P2;PMS_P1;PMS_P2;Temp;Humidity;BMP_temperature;BMP_pressure;BME280_temperature;BME280_humidity;BME280_pressure;Samples;Min_cycle;Max_cycle;Signal;HPM_P1;HPM_P2
2021/10/03 00:01:14;;;;;;;0.77;0.77;;;14.50;98.60;;;;;;4977606;28;20026;-73
2021/10/03 00:03:44;;;;;;;0.20;0.20;;;14.60;98.70;;;;;;4994876;28;20030;-73
2021/10/03 00:06:12;;;;;;;0.30;0.30;;;14.60;96.70;;;;;;4994695;28;20081;-73
2021/10/03 00:08:38;;;;;;;0.10;0.10;;;14.60;97.20;;;;;;4960951;28;20026;-74
2021/10/03 00:11:06;;;;;;;0.20;0.20;;;14.50;98.10;;;;;;4977382;28;20030;-73
2021/10/03 00:13:33;;;;;;;0.10;0.10;;;14.50;97.40;;;;;;4994694;28;20363;-73
2021/10/03 00:16:00;;;;;;;0.10;0.10;;;14.40;97.20;;;;;;4994262;28;20107;-73
2021/10/03 00:18:26;;;;;;;0.47;0.47;;;14.30;97.40;;;;;;4977159;28;20072;-73
2021/10/03 00:20:53;;;;;;;0.20;0.20;;;14.30;96.90;;;;;;4976989;28;20042;-73
2021/10/03 00:23:19;;;;;;;0.15;0.15;;;14.50;97.00;;;;;;4994432;28;20479;-73
2021/10/03 00:25:45;;;;;;;0.10;0.10;;;14.60;96.40;;;;;;4960698;28;20028;-73
2021/10/03 00:28:12;;;;;;;0.10;0.10;;;14.50;95.80;;;;;;4994386;28;20475;-73
2021/10/03 00:30:40;;;;;;;0.20;0.20;;;14.60;95.60;;;;;;4994315;28;20033;-74
2021/10/03 00:33:06;;;;;;;0.20;0.20;;;14.50;95.30;;;;;;4994251;28;20050;-73
2021/10/03 00:35:33;;;;;;;0.38;0.38;;;14.40;94.90;;;;;;4994053;28;20073;-73
2021/10/03 00:38:04;;;;;;;0.13;0.13;;;14.40;94.90;;;;;;4994297;28;20022;-73
2021/10/03 00:40:31;;;;;;;0.20;0.20;;;14.40;95.00;;;;;;4960878;28;20027;-73
2021/10/03 00:43:02;;;;;;;0.20;0.20;;;14.50;94.60;;;;;;4976672;28;20266;-73
2021/10/03 00:45:30;;;;;;;0.50;0.50;;;14.50;94.50;;;;;;4976496;28;20018;-73
2021/10/03 00:47:57;;;;;;;0.20;0.20;;;14.50;94.40;;;;;;4976452;28;20399;-73
2021/10/03 00:50:23;;;;;;;0.10;0.10;;;14.50;93.90;;;;;;4993866;28;20471;-73
2021/10/03 00:52:49;;;;;;;0.20;0.20;;;14.60;93.90;;;;;;4976143;28;20168;-74
2021/10/03 00:55:17;;;;;;;0.20;0.20;;;14.60;93.60;;;;;;4993575;28;20164;-73
2021/10/03 00:57:46;;;;;;;0.10;0.10;;;14.70;93.20;;;;;;4993615;28;20033;-74
2021/10/03 01:00:14;;;;;;;0.30;0.30;;;14.60;93.30;;;;;;4993745;28;20093;-74
2021/10/03 01:02:40;;;;;;;0.13;0.13;;;14.70;93.50;;;;;;4976291;28;20030;-74
2021/10/03 01:05:08;;;;;;;0.13;0.13;;;14.60;93.10;;;;;;4993542;28;20023;-73
2021/10/03 01:07:36;;;;;;;0.13;0.13;;;14.60;93.20;;;;;;4975954;28;20026;-73
2021/10/03 01:10:07;;;;;;;0.20;0.20;;;14.70;93.20;;;;;;4976003;28;20495;-73
2021/10/03 01:12:34;;;;;;;0.63;0.52;;;14.60;93.20;;;;;;4993566;28;20073;-73
2021/10/03 01:15:01;;;;;;;0.20;0.20;;;14.60;92.90;;;;;;4975587;28;20034;-73
2021/10/03 01:17:26;;;;;;;0.20;0.20;;;14.70;92.80;;;;;;4993338;28;20018;-73
2021/10/03 01:19:52;;;;;;;0.10;0.10;;;14.80;92.60;;;;;;4993334;28;20102;-73
2021/10/03 01:22:19;;;;;;;0.10;0.10;;;14.80;92.30;;;;;;4976075;28;20088;-73
2021/10/03 01:24:45;;;;;;;0.15;0.15;;;14.70;92.50;;;;;;4993161;28;20474;-73
2021/10/03 01:27:10;;;;;;;0.20;0.20;;;14.60;92.40;;;;;;4975780;28;20031;-73
2021/10/03 01:29:36;;;;;;;0.10;0.10;;;14.60;92.20;;;;;;4975853;28;20152;-74
2021/10/03 01:32:03;;;;;;;2.50;0.55;;;14.60;92.10;;;;;;4993161;28;20109;-74
2021/10/03 01:34:28;;;;;;;0.20;0.20;;;14.70;91.80;;;;;;4975498;28;20462;-74
2021/10/03 01:36:54;;;;;;;0.10;0.10;;;14.70;91.60;;;;;;4975722;28;20026;-73
2021/10/03 01:39:20;;;;;;;0.20;0.20;;;14.60;91.50;;;;;;4992963;28;20037;-73
2021/10/03 01:41:47;;;;;;;0.40;0.40;;;14.50;91.40;;;;;;4992980;28;20033;-73
2021/10/03 01:44:13;;;;;;;0.17;0.17;;;14.40;91.60;;;;;;4975543;28;20022;-73
2021/10/03 01:46:38;;;;;;;0.10;0.10;;;14.30;91.80;;;;;;4992860;28;20068;-73
2021/10/03 01:49:04;;;;;;;0.10;0.10;;;14.50;91.50;;;;;;4992821;28;20101;-73
2021/10/03 01:51:30;;;;;;;0.17;0.17;;;14.60;91.00;;;;;;4992900;28;20032;-73
2021/10/03 01:53:58;;;;;;;0.30;0.30;;;14.70;90.50;;;;;;4992694;28;20478;-73
2021/10/03 01:56:26;;;;;;;0.28;0.28;;;14.80;90.10;;;;;;4992645;28;20029;-73
2021/10/03 01:58:58;;;;;;;0.10;0.10;;;14.80;89.30;;;;;;4992689;28;20022;-73
2021/10/03 02:01:28;;;;;;;0.20;0.20;;;14.90;89.40;;;;;;4975436;28;20034;-73
2021/10/03 02:03:54;;;;;;;0.10;0.10;;;14.90;89.80;;;;;;4974793;28;20026;-73
2021/10/03 02:06:21;;;;;;;0.20;0.20;;;14.90;89.00;;;;;;4992571;28;20433;-73
2021/10/03 02:08:55;;;;;;;0.10;0.10;;;14.80;89.90;;;;;;4974948;28;20053;-73
2021/10/03 02:11:23;;;;;;;0.10;0.10;;;14.90;89.40;;;;;;4975295;28;20032;-73
2021/10/03 02:13:49;;;;;;;0.20;0.20;;;14.80;89.30;;;;;;4975244;28;20031;-73
2021/10/03 02:16:15;;;;;;;0.50;0.50;;;14.70;89.40;;;;;;4992430;28;20018;-73
2021/10/03 02:18:45;;;;;;;0.30;0.30;;;14.70;89.70;;;;;;4974992;28;20475;-73
2021/10/03 02:21:12;;;;;;;0.30;0.30;;;14.50;90.00;;;;;;4959274;28;20073;-73
2021/10/03 02:23:38;;;;;;;0.22;0.22;;;14.60;89.70;;;;;;4975087;28;20089;-73
2021/10/03 02:26:04;;;;;;;0.20;0.20;;;14.70;90.20;;;;;;4992391;28;20023;-73
2021/10/03 02:28:31;;;;;;;0.20;0.20;;;14.60;89.70;;;;;;4992302;28;20430;-73
2021/10/03 02:31:00;;;;;;;0.20;0.20;;;14.60;90.20;;;;;;4992712;28;20026;-73
2021/10/03 02:33:27;;;;;;;0.10;0.10;;;14.60;90.30;;;;;;4992398;28;20053;-73
2021/10/03 02:35:53;;;;;;;0.20;0.20;;;14.60;90.10;;;;;;4974830;28;20117;-74
2021/10/03 02:38:21;;;;;;;0.20;0.20;;;14.50;90.30;;;;;;4992317;28;20026;-73
2021/10/03 02:40:50;;;;;;;0.20;0.20;;;14.40;90.70;;;;;;4974899;28;20061;-73
2021/10/03 02:43:16;;;;;;;0.40;0.40;;;14.40;90.70;;;;;;4974876;28;20022;-73
2021/10/03 02:45:45;;;;;;;0.40;0.40;;;14.30;90.90;;;;;;4992091;28;20060;-73
2021/10/03 02:48:12;;;;;;;0.20;0.20;;;14.10;90.80;;;;;;4974767;28;20026;-73
2021/10/03 02:50:38;;;;;;;0.20;0.20;;;14.20;90.80;;;;;;4974804;28;20026;-73
2021/10/03 02:53:08;;;;;;;0.20;0.20;;;14.20;90.00;;;;;;4992132;28;20360;-73
2021/10/03 02:55:37;;;;;;;0.20;0.20;;;14.40;89.00;;;;;;4992087;28;20027;-73
2021/10/03 02:58:05;;;;;;;0.30;0.28;;;14.40;89.60;;;;;;4992025;28;20512;-73
2021/10/03 03:00:33;;;;;;;0.98;0.93;;;14.40;88.20;;;;;;4992184;28;20104;-73
2021/10/03 03:02:59;;;;;;;0.60;0.60;;;14.50;88.20;;;;;;4974692;28;20030;-73
2021/10/03 03:05:25;;;;;;;0.20;0.20;;;14.50;88.40;;;;;;4974643;28;20117;-73
2021/10/03 03:07:51;;;;;;;0.45;0.45;;;14.50;87.90;;;;;;4974564;28;20031;-73
2021/10/03 03:10:17;;;;;;;0.22;0.22;;;14.60;87.80;;;;;;4974513;28;20062;-73
2021/10/03 03:12:43;;;;;;;0.70;0.50;;;14.60;87.40;;;;;;4991990;28;20502;-73
2021/10/03 03:15:09;;;;;;;0.10;0.10;;;14.60;87.30;;;;;;4975007;28;20081;-73
2021/10/03 03:17:37;;;;;;;0.10;0.10;;;14.70;87.10;;;;;;4978294;28;20429;-73
2021/10/03 03:20:07;;;;;;;0.10;0.10;;;14.70;86.20;;;;;;4995760;28;20394;-73
2021/10/03 03:22:33;;;;;;;0.30;0.30;;;14.70;86.80;;;;;;4996231;28;20043;-73
2021/10/03 03:25:00;;;;;;;0.20;0.20;;;14.70;86.80;;;;;;4995308;28;20038;-73
2021/10/03 03:27:25;;;;;;;0.10;0.10;;;14.70;86.40;;;;;;4995425;28;20022;-73
2021/10/03 03:29:51;;;;;;;0.10;0.10;;;14.70;87.20;;;;;;4961871;28;20440;-73
2021/10/03 03:32:17;;;;;;;1.25;0.95;;;14.70;86.40;;;;;;4978057;28;20101;-73
2021/10/03 03:34:43;;;;;;;0.10;0.10;;;14.60;86.30;;;;;;4977677;28;20045;-73
2021/10/03 03:37:09;;;;;;;0.60;0.32;;;14.50;87.00;;;;;;4995286;28;20149;-73
2021/10/03 03:39:35;;;;;;;0.15;0.15;;;14.50;87.00;;;;;;4978176;28;20105;-73
2021/10/03 03:42:01;;;;;;;0.20;0.20;;;14.50;87.00;;;;;;4977864;28;20026;-73
2021/10/03 03:44:29;;;;;;;0.30;0.30;;;14.60;86.90;;;;;;4995144;28;20023;-73
2021/10/03 03:46:54;;;;;;;0.20;0.20;;;14.60;86.90;;;;;;4995126;28;20038;-73
2021/10/03 03:49:20;;;;;;;0.20;0.20;;;14.60;85.70;;;;;;4961351;28;20038;-73
2021/10/03 03:51:46;;;;;;;0.10;0.10;;;14.70;85.70;;;;;;4995086;28;20029;-73
2021/10/03 03:54:12;;;;;;;0.20;0.20;;;14.70;85.60;;;;;;4995047;28;20050;-73
2021/10/03 03:56:37;;;;;;;0.10;0.10;;;14.80;84.80;;;;;;4977301;28;20030;-73
2021/10/03 03:59:03;;;;;;;0.30;0.30;;;14.70;85.20;;;;;;4977242;28;20081;-73
2021/10/03 04:01:29;;;;;;;0.13;0.13;;;14.50;85.90;;;;;;4961357;28;20027;-73
2021/10/03 04:03:55;;;;;;;0.10;0.10;;;14.50;85.10;;;;;;4977457;28;20022;-73
2021/10/03 04:06:20;;;;;;;0.30;0.30;;;14.60;85.50;;;;;;4994628;28;20058;-73
2021/10/03 04:08:46;;;;;;;0.20;0.20;;;14.60;85.20;;;;;;4977107;28;20031;-73
2021/10/03 04:11:13;;;;;;;0.35;0.35;;;14.60;85.90;;;;;;4994739;28;20038;-73
2021/10/03 04:13:39;;;;;;;0.25;0.25;;;14.50;85.60;;;;;;4961107;28;20023;-73
2021/10/03 04:16:05;;;;;;;0.30;0.30;;;14.60;85.50;;;;;;4994241;28;20018;-73
2021/10/03 04:18:32;;;;;;;0.38;0.38;;;14.60;85.50;;;;;;4994352;28;20026;-73
2021/10/03 04:20:57;;;;;;;0.52;0.52;;;14.60;85.10;;;;;;4960972;28;20482;-73
2021/10/03 04:23:23;;;;;;;0.20;0.20;;;14.60;85.80;;;;;;4994544;28;20065;-73
2021/10/03 04:25:49;;;;;;;0.90;0.85;;;14.60;85.00;;;;;;4994263;28;20254;-73
2021/10/03 04:28:15;;;;;;;0.20;0.20;;;14.60;85.40;;;;;;4960379;28;20109;-74
2021/10/03 04:30:41;;;;;;;0.55;0.55;;;14.50;84.70;;;;;;4976690;28;20120;-73
2021/10/03 04:33:07;;;;;;;3.35;2.83;;;14.50;84.90;;;;;;4994213;28;20022;-73
2021/10/03 04:35:33;;;;;;;0.22;0.22;;;14.50;83.60;;;;;;4994129;28;20029;-73
2021/10/03 04:38:00;;;;;;;0.15;0.15;;;14.60;84.00;;;;;;4994135;28;20026;-73
2021/10/03 04:40:25;;;;;;;0.73;0.73;;;14.70;83.60;;;;;;4976780;28;20039;-75
2021/10/03 04:42:51;;;;;;;0.25;0.25;;;14.60;83.20;;;;;;4994171;28;20030;-75
2021/10/03 04:45:17;;;;;;;0.20;0.20;;;14.70;84.00;;;;;;4993998;28;20161;-75
2021/10/03 04:47:44;;;;;;;0.30;0.30;;;14.70;83.40;;;;;;4993920;28;20025;-75
2021/10/03 04:50:11;;;;;;;0.17;0.17;;;14.70;83.80;;;;;;4960463;28;20034;-74
2021/10/03 04:52:39;;;;;;;0.10;0.10;;;14.60;83.60;;;;;;4994136;28;20026;-73
2021/10/03 04:55:07;;;;;;;0.20;0.20;;;14.50;84.00;;;;;;4993651;28;20026;-73
2021/10/03 04:57:33;;;;;;;0.20;0.20;;;14.50;83.30;;;;;;4993727;28;20025;-73
2021/10/03 04:59:59;;;;;;;0.47;0.47;;;14.50;83.40;;;;;;4993770;28;20027;-73
2021/10/03 05:02:24;;;;;;;0.10;0.10;;;14.60;83.80;;;;;;4976061;28;20033;-73
2021/10/03 05:04:50;;;;;;;0.20;0.20;;;14.60;82.90;;;;;;4993547;28;20034;-73
2021/10/03 05:07:16;;;;;;;0.40;0.40;;;14.70;82.50;;;;;;4993506;28;20022;-73
2021/10/03 05:09:41;;;;;;;0.20;0.20;;;14.60;83.00;;;;;;4993525;28;20037;-73
2021/10/03 05:12:08;;;;;;;0.10;0.10;;;14.70;82.40;;;;;;4993680;28;20431;-73
2021/10/03 05:14:33;;;;;;;0.35;0.35;;;14.70;82.80;;;;;;4993023;28;20157;-74
2021/10/03 05:16:59;;;;;;;0.20;0.20;;;14.70;82.20;;;;;;4993306;28;20481;-73
2021/10/03 05:19:25;;;;;;;0.20;0.20;;;14.70;82.30;;;;;;4976004;28;20033;-73
2021/10/03 05:21:51;;;;;;;0.15;0.15;;;14.60;82.00;;;;;;4993412;28;20026;-73
2021/10/03 05:24:17;;;;;;;0.45;0.30;;;14.50;82.40;;;;;;4993289;28;20371;-73
2021/10/03 05:26:43;;;;;;;1.08;0.85;;;14.50;82.40;;;;;;4975725;28;20595;-74
2021/10/03 05:29:08;;;;;;;0.20;0.20;;;14.50;82.30;;;;;;4992862;28;20053;-73
2021/10/03 05:31:34;;;;;;;0.10;0.10;;;14.50;82.60;;;;;;4975499;28;20029;-73
2021/10/03 05:34:00;;;;;;;0.10;0.10;;;14.60;82.50;;;;;;4975795;28;20030;-73
2021/10/03 05:36:26;;;;;;;0.40;0.38;;;14.70;82.10;;;;;;4959490;28;20060;-73
2021/10/03 05:38:56;;;;;;;1.35;0.20;;;14.60;81.90;;;;;;4992235;28;20026;-73
2021/10/03 05:41:22;;;;;;;0.10;0.10;;;14.60;82.50;;;;;;4975627;28;20459;-73
2021/10/03 05:43:48;;;;;;;0.10;0.10;;;14.70;82.20;;;;;;4975433;28;20034;-73
2021/10/03 05:46:14;;;;;;;0.10;0.10;;;14.70;81.80;;;;;;4992948;28;20069;-73
2021/10/03 05:48:40;;;;;;;0.20;0.20;;;14.60;82.50;;;;;;4975394;28;20030;-73
2021/10/03 05:51:06;;;;;;;0.30;0.30;;;14.70;82.40;;;;;;4992928;28;20027;-73
2021/10/03 05:53:31;;;;;;;0.80;0.40;;;14.70;82.80;;;;;;4975269;28;20038;-73
2021/10/03 05:55:57;;;;;;;0.20;0.20;;;14.60;82.90;;;;;;4975264;28;20061;-73
2021/10/03 05:58:23;;;;;;;0.20;0.20;;;14.80;82.30;;;;;;4992601;28;20026;-73
2021/10/03 06:00:49;;;;;;;0.10;0.10;;;14.80;81.90;;;;;;4992440;28;20026;-73
2021/10/03 06:03:14;;;;;;;0.13;0.13;;;14.90;82.20;;;;;;4974597;28;20394;-73
2021/10/03 06:05:40;;;;;;;0.32;0.32;;;15.00;82.10;;;;;;4958781;28;20030;-73
2021/10/03 06:08:06;;;;;;;0.20;0.20;;;15.00;82.20;;;;;;4992400;28;20033;-73
2021/10/03 06:10:32;;;;;;;0.10;0.10;;;15.00;81.90;;;;;;4975050;28;20033;-73
2021/10/03 06:12:58;;;;;;;0.20;0.20;;;15.00;82.00;;;;;;4974959;28;20033;-73
2021/10/03 06:15:24;;;;;;;0.40;0.40;;;15.10;82.10;;;;;;4992273;28;20023;-73
2021/10/03 06:17:50;;;;;;;0.10;0.10;;;15.10;82.10;;;;;;4992465;28;20542;-73
2021/10/03 06:20:16;;;;;;;0.10;0.10;;;15.20;82.30;;;;;;4974973;28;20034;-74
2021/10/03 06:22:45;;;;;;;0.30;0.30;;;15.20;82.60;;;;;;4992529;28;20106;-73
2021/10/03 06:25:12;;;;;;;0.20;0.20;;;15.30;82.30;;;;;;4975132;28;20490;-73
2021/10/03 06:27:38;;;;;;;0.10;0.10;;;15.40;82.60;;;;;;4992523;28;20026;-73
2021/10/03 06:30:04;;;;;;;1.40;1.17;;;15.50;80.50;;;;;;4974688;28;20506;-73
2021/10/03 06:32:30;;;;;;;0.20;0.20;;;15.70;80.40;;;;;;4992275;28;20077;-73
2021/10/03 06:34:56;;;;;;;0.25;0.25;;;15.90;79.80;;;;;;4991874;28;20030;-73
2021/10/03 06:37:22;;;;;;;0.20;0.20;;;16.00;78.90;;;;;;4991867;28;20033;-73
2021/10/03 06:39:47;;;;;;;0.15;0.15;;;16.10;77.70;;;;;;4974937;28;20031;-73
2021/10/03 06:42:13;;;;;;;0.10;0.10;;;16.10;77.20;;;;;;4974763;28;20077;-73
2021/10/03 06:44:39;;;;;;;0.45;0.45;;;16.20;77.20;;;;;;4991807;28;20160;-73
2021/10/03 06:47:08;;;;;;;0.10;0.10;;;16.30;76.80;;;;;;4958717;28;20034;-75
2021/10/03 06:49:38;;;;;;;0.43;0.43;;;16.30;77.10;;;;;;4992222;28;20057;-74
2021/10/03 06:52:04;;;;;;;0.68;0.63;;;16.40;77.60;;;;;;4995988;28;20026;-74
2021/10/03 06:54:30;;;;;;;0.45;0.30;;;16.50;76.40;;;;;;4962252;28;20030;-74
2021/10/03 06:56:55;;;;;;;0.30;0.30;;;16.50;77.10;;;;;;4996020;28;20028;-74
2021/10/03 06:59:21;;;;;;;0.35;0.35;;;16.70;75.50;;;;;;4995909;28;20033;-74
2021/10/03 07:01:47;;;;;;;1.05;0.55;;;16.80;75.80;;;;;;4995891;28;20102;-74
2021/10/03 07:04:13;;;;;;;0.20;0.20;;;16.90;75.90;;;;;;4995389;28;20513;-74
2021/10/03 07:06:39;;;;;;;0.10;0.10;;;16.90;74.70;;;;;;4995352;28;20035;-74
2021/10/03 07:09:05;;;;;;;1.23;0.93;;;17.00;74.00;;;;;;4995213;28;20037;-74
2021/10/03 07:11:31;;;;;;;0.63;0.52;;;17.10;74.80;;;;;;4978115;28;20478;-74
2021/10/03 07:13:57;;;;;;;0.10;0.10;;;17.10;74.90;;;;;;4995346;28;20090;-74
2021/10/03 07:16:22;;;;;;;2.53;1.45;;;17.20;74.60;;;;;;4977552;28;20029;-74
2021/10/03 07:18:48;;;;;;;0.32;0.32;;;17.30;74.80;;;;;;4961789;28;20038;-74
2021/10/03 07:21:14;;;;;;;0.10;0.10;;;17.40;74.50;;;;;;4995364;28;20027;-75
2021/10/03 07:23:40;;;;;;;0.10;0.10;;;17.50;74.80;;;;;;4995374;28;20088;-75
2021/10/03 07:26:07;;;;;;;0.52;0.52;;;17.50;74.30;;;;;;4977805;28;20378;-74
2021/10/03 07:28:33;;;;;;;0.10;0.10;;;17.60;74.30;;;;;;4977921;28;20030;-74
2021/10/03 07:30:59;;;;;;;0.20;0.20;;;17.70;73.60;;;;;;4961611;28;20034;-74
2021/10/03 07:33:25;;;;;;;0.40;0.40;;;17.80;73.40;;;;;;4995042;28;20532;-74
2021/10/03 07:35:50;;;;;;;0.10;0.10;;;17.90;71.10;;;;;;4994869;28;20127;-74
2021/10/03 07:38:16;;;;;;;0.10;0.10;;;18.00;72.10;;;;;;4995131;28;20117;-74
2021/10/03 07:40:43;;;;;;;0.50;0.50;;;18.10;72.00;;;;;;4995132;28;20038;-74
2021/10/03 07:43:10;;;;;;;0.20;0.20;;;18.20;70.60;;;;;;4977497;28;20030;-74
2021/10/03 07:45:36;;;;;;;1.23;1.23;;;18.30;70.20;;;;;;4995024;28;20033;-74
2021/10/03 07:48:02;;;;;;;0.10;0.10;;;18.40;70.50;;;;;;4994924;28;20035;-74
2021/10/03 07:50:28;;;;;;;1.00;0.63;;;18.40;70.90;;;;;;4995045;28;20463;-74
2021/10/03 07:52:54;;;;;;;0.28;0.28;;;18.50;69.40;;;;;;4977524;28;20026;-75
2021/10/03 07:55:20;;;;;;;0.20;0.20;;;18.50;68.80;;;;;;4994756;28;20514;-74
2021/10/03 07:57:46;;;;;;;0.90;0.45;;;18.60;68.40;;;;;;4977155;28;20028;-74
2021/10/03 08:00:12;;;;;;;0.10;0.10;;;18.70;67.70;;;;;;4994782;28;20050;-74
2021/10/03 08:02:38;;;;;;;0.10;0.10;;;18.70;69.00;;;;;;4993632;28;20117;-74
2021/10/03 08:05:04;;;;;;;0.10;0.10;;;18.80;68.50;;;;;;4994474;28;20113;-74
2021/10/03 08:07:30;;;;;;;0.20;0.20;;;18.90;67.60;;;;;;4977079;28;20030;-74
2021/10/03 08:09:56;;;;;;;0.10;0.10;;;19.00;66.90;;;;;;4994686;28;20089;-74
2021/10/03 08:12:22;;;;;;;0.47;0.47;;;19.00;66.10;;;;;;4977092;28;20023;-73
2021/10/03 08:14:48;;;;;;;0.32;0.32;;;19.10;66.70;;;;;;4976593;28;20084;-73
2021/10/03 08:17:14;;;;;;;0.68;0.68;;;19.20;67.20;;;;;;4994390;28;20084;-75
2021/10/03 08:19:40;;;;;;;0.10;0.10;;;19.20;68.20;;;;;;4994515;28;20114;-74
2021/10/03 08:22:06;;;;;;;0.20;0.20;;;19.40;67.20;;;;;;4976957;28;20054;-74
2021/10/03 08:24:31;;;;;;;0.10;0.10;;;19.50;65.20;;;;;;4976836;28;20596;-74
2021/10/03 08:26:58;;;;;;;0.20;0.20;;;19.60;65.50;;;;;;4993990;28;20394;-74
2021/10/03 08:29:24;;;;;;;0.10;0.10;;;19.70;65.90;;;;;;4976406;28;20041;-74
2021/10/03 08:31:50;;;;;;;0.13;0.13;;;19.80;64.80;;;;;;4994093;28;20022;-74
2021/10/03 08:34:16;;;;;;;0.10;0.10;;;19.90;64.80;;;;;;4993978;28;20072;-74
2021/10/03 08:36:42;;;;;;;1.33;0.38;;;20.00;62.50;;;;;;4976201;28;20026;-74
2021/10/03 08:39:08;;;;;;;0.10;0.10;;;20.00;62.80;;;;;;4994026;28;20045;-74
2021/10/03 08:41:36;;;;;;;0.40;0.40;;;20.20;62.40;;;;;;4993814;28;20037;-74
2021/10/03 08:44:02;;;;;;;0.10;0.10;;;20.20;62.80;;;;;;4994182;28;20501;-75
2021/10/03 08:46:28;;;;;;;0.20;0.20;;;20.30;62.30;;;;;;4976425;28;20033;-74
2021/10/03 08:48:56;;;;;;;0.20;0.20;;;20.40;60.70;;;;;;4976432;28;20035;-74
2021/10/03 08:51:23;;;;;;;0.20;0.20;;;20.50;61.00;;;;;;4976465;28;20027;-74
2021/10/03 08:53:50;;;;;;;0.40;0.40;;;20.60;60.20;;;;;;4993705;28;20364;-74
2021/10/03 08:56:16;;;;;;;0.35;0.35;;;20.70;61.10;;;;;;4975658;28;20467;-74
2021/10/03 08:58:42;;;;;;;1.85;1.75;;;20.80;60.50;;;;;;4976000;28;20236;-74
2021/10/03 09:01:10;;;;;;;0.10;0.10;;;21.10;60.10;;;;;;4976055;28;20029;-74
2021/10/03 09:03:37;;;;;;;1.23;0.65;;;21.50;59.00;;;;;;4976046;28;20022;-74
2021/10/03 09:06:03;;;;;;;1.35;0.38;;;21.90;58.30;;;;;;4975975;28;20026;-74
2021/10/03 09:08:36;;;;;;;0.10;0.10;;;22.30;57.60;;;;;;4993435;28;20026;-74
2021/10/03 09:11:04;;;;;;;0.08;0.08;;;22.60;55.50;;;;;;4993706;28;20026;-74
2021/10/03 09:13:30;;;;;;;0.20;0.20;;;22.80;55.50;;;;;;4993420;28;20378;-74
2021/10/03 09:16:03;;;;;;;0.30;0.30;;;22.90;54.50;;;;;;4975848;28;20018;-74
2021/10/03 09:18:35;;;;;;;0.52;0.40;;;23.10;54.50;;;;;;4993370;28;20026;-74
2021/10/03 09:21:02;;;;;;;0.10;0.10;;;23.20;54.20;;;;;;4993429;28;20030;-74
2021/10/03 09:23:27;;;;;;;0.70;0.20;;;23.50;52.80;;;;;;4975868;28;20433;-74
2021/10/03 09:25:53;;;;;;;0.10;0.10;;;23.80;53.40;;;;;;4975494;28;20146;-74
2021/10/03 09:28:25;;;;;;;0.10;0.10;;;24.10;52.50;;;;;;4993179;28;20394;-74
2021/10/03 09:31:12;;;;;;;0.60;0.57;;;24.40;51.90;;;;;;4992917;28;20030;-74
2021/10/03 09:33:54;;;;;;;0.20;0.20;;;24.50;50.70;;;;;;4975147;28;20027;-74
2021/10/03 09:36:23;;;;;;;0.05;0.05;;;24.90;50.40;;;;;;4993533;28;20023;-74
2021/10/03 09:39:03;;;;;;;1.13;0.75;;;25.30;50.40;;;;;;4993144;28;20105;-75
2021/10/03 09:41:35;;;;;;;0.20;0.20;;;25.60;49.50;;;;;;4992951;28;20033;-73
2021/10/03 09:44:06;;;;;;;0.00;0.00;;;25.80;47.90;;;;;;4993220;28;20031;-72
2021/10/03 09:46:52;;;;;;;4.43;0.90;;;25.80;47.60;;;;;;4992917;28;20077;-72
2021/10/03 09:49:26;;;;;;;0.10;0.10;;;26.10;48.10;;;;;;4992719;28;20070;-72
2021/10/03 09:51:53;;;;;;;0.35;0.35;;;26.40;46.70;;;;;;4992770;28;20171;-72
2021/10/03 09:54:20;;;;;;;0.00;0.00;;;26.40;46.30;;;;;;5005731;23;20053;-79
2021/10/03 09:56:47;;;;;;;0.00;0.00;;;26.30;45.10;;;;;;4992927;28;20023;-78
2021/10/03 09:59:13;;;;;;;0.10;0.10;;;26.60;45.50;;;;;;4975407;28;20060;-79
2021/10/03 10:01:47;;;;;;;0.00;0.00;;;27.10;47.10;;;;;;4975864;28;20026;-78
2021/10/03 10:04:17;;;;;;;2.40;0.60;;;27.40;45.70;;;;;;4975613;28;20049;-78
2021/10/03 10:06:44;;;;;;;0.10;0.10;;;27.20;43.10;;;;;;4975984;28;20593;-79
2021/10/03 10:09:22;;;;;;;0.10;0.10;;;27.30;43.50;;;;;;4975898;28;20510;-78
2021/10/03 10:12:11;;;;;;;0.20;0.10;;;27.40;43.50;;;;;;4959636;28;20161;-79
2021/10/03 10:15:02;;;;;;;0.00;0.00;;;27.30;43.00;;;;;;4959575;28;20077;-79
2021/10/03 10:17:35;;;;;;;0.77;0.20;;;28.00;43.60;;;;;;4966486;28;20057;-77
2021/10/03 10:20:27;;;;;;;0.00;0.00;;;27.80;42.90;;;;;;4993370;28;20426;-80
2021/10/03 10:22:58;;;;;;;0.00;0.00;;;28.30;43.00;;;;;;4992952;28;20100;-79
2021/10/03 10:25:46;;;;;;;0.17;0.13;;;28.70;42.30;;;;;;4992328;28;20062;-80
2021/10/03 10:28:24;;;;;;;0.00;0.00;;;29.50;41.40;;;;;;4992866;28;20470;-78
2021/10/03 10:31:11;;;;;;;0.30;0.30;;;29.60;40.10;;;;;;4959280;28;20031;-78
2021/10/03 10:34:04;;;;;;;0.17;0.10;;;29.20;40.70;;;;;;4975546;28;20097;-78
2021/10/03 10:36:48;;;;;;;0.08;0.08;;;29.60;40.30;;;;;;4969625;28;20041;-77
2021/10/03 10:39:16;;;;;;;0.00;0.00;;;29.90;39.30;;;;;;4992784;28;20088;-78
2021/10/03 10:41:48;;;;;;;0.03;0.03;;;30.10;39.40;;;;;;4975427;28;20092;-78
2021/10/03 10:44:34;;;;;;;0.10;0.10;;;30.10;39.70;;;;;;4993021;28;20021;-79
2021/10/03 10:47:06;;;;;;;0.00;0.00;;;30.40;39.70;;;;;;4993099;28;20054;-79
2021/10/03 10:49:39;;;;;;;9.45;0.32;;;30.50;37.90;;;;;;4992945;28;20026;-78
2021/10/03 10:52:17;;;;;;;0.00;0.00;;;30.90;38.30;;;;;;4992747;28;20218;-80
2021/10/03 10:55:04;;;;;;;0.00;0.00;;;31.20;38.20;;;;;;4975290;28;20041;-79
2021/10/03 10:57:31;;;;;;;0.00;0.00;;;31.20;37.70;;;;;;4975414;28;20514;-78
2021/10/03 11:00:16;;;;;;;0.08;0.08;;;31.20;38.00;;;;;;4992971;28;20093;-77
2021/10/03 11:02:52;;;;;;;0.68;0.68;;;31.00;36.10;;;;;;4975343;28;20085;-79
2021/10/03 11:05:48;;;;;;;0.00;0.00;;;30.90;36.40;;;;;;4974910;28;20030;-77
2021/10/03 11:08:19;;;;;;;0.00;0.00;;;30.70;37.50;;;;;;4992058;28;20151;-77
2021/10/03 11:10:59;;;;;;;0.47;0.25;;;30.40;37.60;;;;;;4958437;28;20035;-77
2021/10/03 11:13:45;;;;;;;0.13;0.13;;;30.30;36.60;;;;;;4974623;28;20398;-77
2021/10/03 11:16:19;;;;;;;0.00;0.00;;;30.20;38.20;;;;;;4974529;28;20273;-78
2021/10/03 11:18:53;;;;;;;0.00;0.00;;;30.50;39.00;;;;;;4958427;28;20058;-77
2021/10/03 11:21:29;;;;;;;2.17;0.85;;;31.00;37.00;;;;;;4975021;28;20466;-76
2021/10/03 11:23:57;;;;;;;0.00;0.00;;;31.20;37.10;;;;;;4974684;28;20029;-77
2021/10/03 11:26:23;;;;;;;0.38;0.38;;;31.50;36.50;;;;;;4974307;28;20073;-78
2021/10/03 11:28:55;;;;;;;0.20;0.20;;;32.00;36.70;;;;;;4992146;28;20093;-77
2021/10/03 11:31:57;;;;;;;0.00;0.00;;;32.10;35.00;;;;;;4991828;28;20485;-77
2021/10/03 11:34:35;;;;;;;0.10;0.10;;;31.90;35.60;;;;;;4919272;28;20065;-77
2021/10/03 11:37:13;;;;;;;0.45;0.45;;;32.00;35.30;;;;;;4992450;28;20534;-77
2021/10/03 11:39:46;;;;;;;0.00;0.00;;;32.10;36.10;;;;;;4995205;28;20026;-78
2021/10/03 11:42:15;;;;;;;0.00;0.00;;;32.40;36.30;;;;;;4977916;28;20023;-77
2021/10/03 11:44:42;;;;;;;0.00;0.00;;;32.30;34.60;;;;;;4977469;28;20078;-78
2021/10/03 11:47:12;;;;;;;0.35;0.30;;;32.60;32.80;;;;;;4978025;28;20122;-77
2021/10/03 11:49:41;;;;;;;0.30;0.30;;;32.70;31.10;;;;;;4995293;28;20101;-77
2021/10/03 11:52:09;;;;;;;0.00;0.00;;;31.30;32.50;;;;;;4994965;28;20394;-77
2021/10/03 11:54:47;;;;;;;0.00;0.00;;;30.00;34.10;;;;;;4977448;28;20076;-79
2021/10/03 11:57:28;;;;;;;0.00;0.00;;;30.00;34.50;;;;;;4995025;28;20034;-78
2021/10/03 12:00:04;;;;;;;0.00;0.00;;;30.60;35.40;;;;;;4995073;28;20065;-78
2021/10/03 12:02:35;;;;;;;0.10;0.00;;;30.90;35.20;;;;;;4961521;28;20014;-78
2021/10/03 12:05:02;;;;;;;0.00;0.00;;;30.80;35.20;;;;;;4977398;28;20022;-76
2021/10/03 12:07:28;;;;;;;5.95;4.10;;;30.40;35.50;;;;;;4977352;28;20022;-78
2021/10/03 12:10:04;;;;;;;0.00;0.00;;;30.50;35.50;;;;;;4994856;28;20084;-77
2021/10/03 12:12:52;;;;;;;0.25;0.20;;;30.70;35.90;;;;;;4994876;28;20059;-77
2021/10/03 12:15:37;;;;;;;0.00;0.00;;;30.90;35.30;;;;;;4960921;28;20073;-77
2021/10/03 12:18:03;;;;;;;0.13;0.03;;;30.90;35.70;;;;;;4977627;28;20534;-77
2021/10/03 12:21:06;;;;;;;0.10;0.10;;;31.50;35.70;;;;;;4977144;28;20033;-78
2021/10/03 12:23:49;;;;;;;0.00;0.00;;;31.50;35.80;;;;;;4977335;28;20029;-78
2021/10/03 12:26:35;;;;;;;0.00;0.00;;;31.50;35.30;;;;;;4976586;28;20026;-77
2021/10/03 12:29:09;;;;;;;0.90;0.32;;;31.40;35.50;;;;;;4960399;28;20049;-78
2021/10/03 12:31:38;;;;;;;0.00;0.00;;;31.50;35.40;;;;;;4994299;28;20026;-78
2021/10/03 12:34:06;;;;;;;3.33;0.10;;;31.40;36.30;;;;;;4994406;28;20029;-79
2021/10/03 12:36:32;;;;;;;0.00;0.00;;;31.00;36.20;;;;;;4976749;28;20094;-79
2021/10/03 12:38:58;;;;;;;0.00;0.00;;;30.70;35.50;;;;;;4960053;28;20508;-78
2021/10/03 12:41:25;;;;;;;0.45;0.45;;;30.60;35.40;;;;;;4960714;28;20065;-77
2021/10/03 12:43:52;;;;;;;0.00;0.00;;;30.70;36.70;;;;;;4976753;28;20069;-78
2021/10/03 12:46:17;;;;;;;0.00;0.00;;;30.80;37.50;;;;;;4994383;28;20478;-77
2021/10/03 12:48:43;;;;;;;0.00;0.00;;;30.50;37.00;;;;;;4960001;28;20065;-77
2021/10/03 12:51:09;;;;;;;0.32;0.25;;;30.30;38.40;;;;;;4976720;28;20061;-78
2021/10/03 12:53:35;;;;;;;0.10;0.10;;;29.70;38.60;;;;;;4993982;28;20022;-77
2021/10/03 12:56:01;;;;;;;0.00;0.00;;;29.70;39.70;;;;;;4960182;28;20030;-78